Time;durP1;ratioP1;P1;durP2;ratioP2;P2;SDS_P1;SDS_P2;PMS_P1;PMS_P2;Temp;Humidity;BMP_temperature;BMP_pressure;BME280_temperature;BME280_humidity;BME280_pressure;Samples;Min_cycle;Max_cycle;Signal;HPM_P1;HPM_P2
2021/08/23 06:15:05;;;;;;;3.40;1.80;;;;;;;;;;4989528;28;20085;-61
2021/08/23 06:17:33;;;;;;;10.82;1.70;;;;;;;;;;4988199;28;20029;-63
2021/08/23 06:19:58;;;;;;;3.35;1.60;;;;;;;;;;4983991;28;20481;-62
2021/08/23 06:22:26;;;;;;;5.43;2.70;;;;;;;;;;4987171;28;20810;-64
2021/08/23 06:24:54;;;;;;;6.22;1.58;;;;;;;;;;4986832;28;20093;-62
2021/08/23 06:27:19;;;;;;;6.00;2.25;;;;;;;;;;4987316;28;20497;-61
2021/08/23 06:29:45;;;;;;;10.38;1.83;;;;;;;;;;4990421;28;20050;-62
2021/08/23 06:32:16;;;;;;;3.88;1.45;;;;;;;;;;4971517;28;20062;-62
2021/08/23 06:34:44;;;;;;;7.78;1.73;;;;;;;;;;4988556;28;20033;-62
2021/08/23 06:37:09;;;;;;;9.85;1.55;;;;;;;;;;4954916;28;20603;-62
2021/08/23 06:39:39;;;;;;;5.20;2.05;;;;;;;;;;4986013;28;20034;-62
2021/08/23 06:42:05;;;;;;;5.50;1.60;;;;;;;;;;4973012;28;20411;-62
2021/08/23 06:44:35;;;;;;;3.25;1.85;;;;;;;;;;4988058;28;20026;-63
2021/08/23 06:47:03;;;;;;;7.22;1.83;;;;;;;;;;4956173;28;20026;-63
2021/08/23 06:49:31;;;;;;;5.22;1.80;;;;;;;;;;4970157;28;20025;-63
2021/08/23 06:52:01;;;;;;;6.60;1.65;;;;;;;;;;4965452;28;20018;-62
2021/08/23 06:54:29;;;;;;;5.13;1.83;;;;;;;;;;4989107;28;20042;-63
2021/08/23 06:56:55;;;;;;;4.70;1.83;;;;;;;;;;4973766;28;20113;-62
2021/08/23 06:59:27;;;;;;;5.43;1.65;;;;;;;;;;4988790;28;20029;-62
2021/08/23 07:01:55;;;;;;;6.82;2.00;;;;;;;;;;4970651;28;20481;-62
2021/08/23 07:04:21;;;;;;;3.30;1.60;;;;;;;;;;4987788;28;20034;-62
2021/08/23 07:06:49;;;;;;;4.40;1.30;;;;;;;;;;4972947;28;20701;-62
2021/08/23 07:09:15;;;;;;;5.75;1.42;;;;;;;;;;4989339;28;20026;-62
2021/08/23 07:11:41;;;;;;;2.88;1.05;;;;;;;;;;4987376;28;20106;-62
2021/08/23 07:14:09;;;;;;;2.88;1.10;;;;;;;;;;4984639;28;20048;-62
2021/08/23 07:16:35;;;;;;;2.60;0.82;;;;;;;;;;4960076;28;20136;-61
2021/08/23 07:19:03;;;;;;;2.20;0.70;;;;;;;;;;4965505;28;20038;-61
2021/08/23 07:21:28;;;;;;;4.28;0.90;;;;;;;;;;4983306;28;20039;-62
2021/08/23 07:23:57;;;;;;;8.27;1.20;;;;;;;;;;4968892;28;20058;-61
2021/08/23 07:26:25;;;;;;;3.20;0.80;;;;;;;;;;4977854;28;21884;-62
2021/08/23 07:28:51;;;;;;;5.75;1.10;;;;;;;;;;4984088;28;20042;-61
2021/08/23 07:31:21;;;;;;;2.97;0.82;;;;;;;;;;4972690;28;20145;-61
2021/08/23 07:33:49;;;;;;;1.90;0.80;;;;;;;;;;4980044;28;20120;-62
2021/08/23 07:36:20;;;;;;;5.28;1.20;;;;;;;;;;4960853;28;20046;-63
2021/08/23 07:38:46;;;;;;;2.10;0.90;;;;;;;;;;4975724;28;20038;-62
2021/08/23 07:41:13;;;;;;;1.77;0.80;;;;;;;;;;4962418;28;20031;-62
2021/08/23 07:43:42;;;;;;;4.63;1.02;;;;;;;;;;4968336;28;20049;-61
2021/08/23 07:46:09;;;;;;;4.22;1.25;;;;;;;;;;4985284;28;20060;-62
2021/08/23 07:48:35;;;;;;;1.75;0.75;;;;;;;;;;4960884;28;20030;-62
2021/08/23 07:51:05;;;;;;;1.85;0.68;;;;;;;;;;4963079;28;20054;-62
2021/08/23 07:53:30;;;;;;;5.53;1.00;;;;;;;;;;4975245;28;20079;-63
2021/08/23 07:55:56;;;;;;;4.68;1.02;;;;;;;;;;4979503;28;20149;-62
2021/08/23 07:58:26;;;;;;;3.03;0.57;;;;;;;;;;4944982;28;20041;-61
2021/08/23 08:00:52;;;;;;;4.13;0.70;;;;;;;;;;4960473;28;20037;-61
2021/08/23 08:03:19;;;;;;;2.40;0.70;;;;;;;;;;4959114;28;20061;-61
2021/08/23 08:05:45;;;;;;;2.85;0.80;;;;;;;;;;4980829;28;20033;-61
2021/08/23 08:08:13;;;;;;;3.92;1.02;;;;;;;;;;4978202;28;20496;-61
2021/08/23 08:10:41;;;;;;;2.13;0.90;;;;;;;;;;4979276;28;20030;-62
2021/08/23 08:13:07;;;;;;;3.22;1.10;;;;;;;;;;4959771;28;20050;-61
2021/08/23 08:15:39;;;;;;;2.13;0.70;;;;;;;;;;4956298;28;20041;-61
2021/08/23 08:18:05;;;;;;;4.38;0.88;;;;;;;;;;4975213;28;20686;-64
2021/08/23 08:20:35;;;;;;;2.67;0.73;;;;;;;;;;4951973;28;20050;-61
2021/08/23 08:23:06;;;;;;;2.50;0.95;;;;;;;;;;4979112;28;20198;-62
2021/08/23 08:25:32;;;;;;;2.53;0.98;;;;;;;;;;4975964;28;20172;-62
2021/08/23 08:28:00;;;;;;;1.58;0.63;;;;;;;;;;4980627;28;20037;-62
2021/08/23 08:30:28;;;;;;;3.03;0.90;;;;;;;;;;4982401;28;20235;-63
2021/08/23 08:32:56;;;;;;;4.93;1.10;;;;;;;;;;4960551;28;20041;-62
2021/08/23 08:35:24;;;;;;;4.78;0.80;;;;;;;;;;4975551;28;20053;-62
2021/08/23 08:37:52;;;;;;;4.47;1.00;;;;;;;;;;4964061;28;20044;-63
2021/08/23 08:40:21;;;;;;;4.22;0.70;;;;;;;;;;4979333;28;22060;-62
2021/08/23 08:42:46;;;;;;;1.95;0.70;;;;;;;;;;4968646;28;20061;-63
2021/08/23 08:45:12;;;;;;;1.58;0.82;;;;;;;;;;4975764;28;20026;-62
2021/08/23 08:47:43;;;;;;;1.95;0.60;;;;;;;;;;4977482;28;20177;-62
2021/08/23 08:50:09;;;;;;;2.97;1.08;;;;;;;;;;4981643;28;20103;-61
2021/08/23 08:52:38;;;;;;;2.08;0.70;;;;;;;;;;4977721;28;20065;-61
2021/08/23 08:55:03;;;;;;;6.35;0.82;;;;;;;;;;4960103;28;20346;-60
2021/08/23 08:57:31;;;;;;;2.40;0.82;;;;;;;;;;4974891;28;20069;-60
2021/08/23 09:00:01;;;;;;;1.95;0.55;;;;;;;;;;4954363;28;20033;-62
2021/08/23 09:02:29;;;;;;;4.30;1.23;;;;;;;;;;4974849;28;20087;-63
2021/08/23 09:04:54;;;;;;;3.22;0.63;;;;;;;;;;4985587;28;20028;-62
2021/08/23 09:07:20;;;;;;;3.88;0.70;;;;;;;;;;4965332;28;20029;-61
2021/08/23 09:09:49;;;;;;;2.35;0.73;;;;;;;;;;4980247;28;20029;-62
2021/08/23 09:12:15;;;;;;;3.08;0.52;;;;;;;;;;4986564;28;20547;-62
2021/08/23 09:14:50;;;;;;;1.17;0.55;;;;;;;;;;4954701;28;20046;-61
2021/08/23 09:17:19;;;;;;;1.23;0.57;;;;;;;;;;4974335;28;20073;-61
2021/08/23 09:19:44;;;;;;;1.77;0.68;;;;;;;;;;4957591;28;20515;-62
2021/08/23 09:22:18;;;;;;;1.67;0.55;;;;;;;;;;4977430;28;20062;-62
2021/08/23 09:24:48;;;;;;;2.03;0.63;;;;;;;;;;4975196;28;20148;-62
2021/08/23 09:27:17;;;;;;;1.15;0.70;;;;;;;;;;4973679;28;20041;-62
2021/08/23 09:29:55;;;;;;;1.38;0.70;;;;;;;;;;4975042;28;20717;-63
2021/08/23 09:32:27;;;;;;;2.38;0.52;;;;;;;;;;4976736;28;20591;-63
2021/08/23 09:34:56;;;;;;;1.45;0.80;;;;;;;;;;4982221;28;20433;-63
2021/08/23 09:37:28;;;;;;;1.17;0.88;;;;;;;;;;4963767;28;20037;-63
2021/08/23 09:40:06;;;;;;;3.15;0.82;;;;;;;;;;4975172;28;20134;-63
2021/08/23 09:42:37;;;;;;;2.42;0.65;;;;;;;;;;4976571;28;20038;-61
2021/08/23 09:45:13;;;;;;;4.10;0.50;;;;;;;;;;4973098;28;20034;-62
2021/08/23 09:47:41;;;;;;;2.80;0.75;;;;;;;;;;4974562;28;20048;-63
2021/08/23 09:50:17;;;;;;;5.13;1.10;;;;;;;;;;4965743;28;20033;-63
2021/08/23 09:52:44;;;;;;;2.03;0.65;;;;;;;;;;4970881;28;20129;-62
2021/08/23 09:55:10;;;;;;;0.95;0.50;;;;;;;;;;4984022;28;20036;-62
2021/08/23 09:57:41;;;;;;;0.73;0.57;;;;;;;;;;4969090;28;20031;-62
2021/08/23 10:00:11;;;;;;;0.70;0.40;;;;;;;;;;4984409;28;20029;-63
2021/08/23 10:02:44;;;;;;;2.60;0.63;;;;;;;;;;4984592;28;20040;-62
2021/08/23 10:05:12;;;;;;;4.13;0.82;;;;;;;;;;4962712;28;20049;-64
2021/08/23 10:07:37;;;;;;;1.27;0.40;;;;;;;;;;4984894;28;20046;-65
2021/08/23 10:10:06;;;;;;;2.58;0.40;;;;;;;;;;4975935;28;20119;-63
2021/08/23 10:12:34;;;;;;;3.88;0.50;;;;;;;;;;4959569;28;20033;-64
2021/08/23 10:15:05;;;;;;;2.00;0.43;;;;;;;;;;4951923;28;20554;-65
2021/08/23 10:17:38;;;;;;;3.00;0.70;;;;;;;;;;4990624;28;21072;-63
2021/08/23 10:20:07;;;;;;;3.55;0.57;;;;;;;;;;4969692;28;20038;-61
2021/08/23 10:22:34;;;;;;;2.10;0.80;;;;;;;;;;4985967;28;22092;-63
2021/08/23 10:25:02;;;;;;;1.70;0.70;;;;;;;;;;4968583;28;20068;-60
2021/08/23 10:27:34;;;;;;;1.30;0.70;;;;;;;;;;4972089;28;20411;-63
2021/08/23 10:30:02;;;;;;;4.25;0.80;;;;;;;;;;4984311;28;20540;-64
2021/08/23 10:32:33;;;;;;;1.33;0.43;;;;;;;;;;4973831;28;20042;-65
2021/08/23 10:35:23;;;;;;;1.40;0.52;;;;;;;;;;4946769;28;20034;-65
2021/08/23 10:37:55;;;;;;;2.50;0.80;;;;;;;;;;4977101;28;20037;-61
2021/08/23 10:40:37;;;;;;;3.25;0.63;;;;;;;;;;4984200;28;21670;-62
2021/08/23 10:43:15;;;;;;;1.50;0.60;;;;;;;;;;4984565;28;20579;-65
2021/08/23 10:45:41;;;;;;;2.13;0.80;;;;;;;;;;4968387;28;20137;-63
2021/08/23 10:48:18;;;;;;;2.25;0.60;;;;;;;;;;4981860;28;20038;-63
2021/08/23 10:50:56;;;;;;;0.85;0.60;;;;;;;;;;4972462;28;20400;-64
2021/08/23 10:53:32;;;;;;;0.70;0.60;;;;;;;;;;4983116;28;20032;-64
2021/08/23 10:55:58;;;;;;;1.27;0.65;;;;;;;;;;4983235;28;20030;-65
2021/08/23 10:58:28;;;;;;;1.42;0.80;;;;;;;;;;4966689;28;20420;-63
2021/08/23 11:00:54;;;;;;;1.95;0.70;;;;;;;;;;4984064;28;20123;-63
2021/08/23 11:03:27;;;;;;;1.98;0.88;;;;;;;;;;4982104;28;20021;-65
2021/08/23 11:05:53;;;;;;;;;;;;;;;;;;4986733;28;20796;-64
2021/08/23 11:08:20;;;;;;;4.10;1.27;;;;;;;;;;4984327;28;19917;-63
2021/08/23 11:10:46;;;;;;;0.52;0.52;;;;;;;;;;4983149;28;20058;-63
2021/08/23 11:13:16;;;;;;;1.98;0.82;;;;;;;;;;4968739;28;20120;-63
2021/08/23 11:15:47;;;;;;;2.17;0.65;;;;;;;;;;4968966;28;20651;-63
2021/08/23 11:18:17;;;;;;;2.00;0.88;;;;;;;;;;4989271;28;20512;-64
2021/08/23 11:20:51;;;;;;;1.80;0.52;;;;;;;;;;4969992;28;20041;-65
2021/08/23 11:23:26;;;;;;;1.88;0.70;;;;;;;;;;4988684;28;20021;-64
2021/08/23 11:25:54;;;;;;;0.68;0.60;;;;;;;;;;4988741;28;20164;-64
2021/08/23 11:28:29;;;;;;;1.75;0.70;;;;;;;;;;4956141;28;20084;-63
2021/08/23 11:30:54;;;;;;;1.35;0.60;;;;;;;;;;4952339;28;20065;-63
2021/08/23 11:33:33;;;;;;;1.92;0.55;;;;;;;;;;4988715;28;20034;-64
2021/08/23 11:36:05;;;;;;;3.78;0.60;;;;;;;;;;4986535;28;20029;-65
2021/08/23 11:38:32;;;;;;;1.65;0.60;;;;;;;;;;4970314;28;20038;-65
2021/08/23 11:40:58;;;;;;;1.40;0.70;;;;;;;;;;4986937;28;20068;-64
2021/08/23 11:43:32;;;;;;;0.40;0.30;;;;;;;;;;4987331;28;20030;-62
2021/08/23 11:46:00;;;;;;;2.65;0.85;;;;;;;;;;4987022;28;20059;-62
2021/08/23 11:48:25;;;;;;;1.30;0.55;;;;;;;;;;4990526;28;20050;-64
2021/08/23 11:50:52;;;;;;;2.05;0.60;;;;;;;;;;4968871;28;20080;-64
2021/08/23 11:53:23;;;;;;;2.13;0.70;;;;;;;;;;4982484;28;20571;-63
2021/08/23 11:55:49;;;;;;;3.90;0.60;;;;;;;;;;4966502;28;20046;-63
2021/08/23 11:58:21;;;;;;;4.30;0.77;;;;;;;;;;4988216;28;20022;-65
2021/08/23 12:01:01;;;;;;;2.50;0.73;;;;;;;;;;4990057;28;20469;-64
2021/08/23 12:03:30;;;;;;;2.38;0.65;;;;;;;;;;4987268;28;20025;-61
2021/08/23 12:06:07;;;;;;;1.77;0.77;;;;;;;;;;4987649;28;20548;-62
2021/08/23 12:08:34;;;;;;;2.53;0.43;;;;;;;;;;4988776;28;20559;-62
2021/08/23 12:11:01;;;;;;;8.63;0.95;;;;;;;;;;4987287;28;20401;-64
2021/08/23 12:13:35;;;;;;;1.30;0.82;;;;;;;;;;4983186;28;20514;-63
2021/08/23 12:16:05;;;;;;;3.40;0.75;;;;;;;;;;4981497;28;20042;-64
2021/08/23 12:18:35;;;;;;;0.85;0.50;;;;;;;;;;4989181;28;20035;-62
2021/08/23 12:21:14;;;;;;;2.45;0.65;;;;;;;;;;4986039;28;22078;-64
2021/08/23 12:23:51;;;;;;;1.55;0.68;;;;;;;;;;4973051;28;20030;-63
2021/08/23 12:26:26;;;;;;;1.60;0.70;;;;;;;;;;4986614;28;20083;-64
2021/08/23 12:28:57;;;;;;;2.53;0.52;;;;;;;;;;4988778;28;20022;-61
2021/08/23 12:31:27;;;;;;;2.03;0.88;;;;;;;;;;4988001;28;20072;-65
2021/08/23 12:33:53;;;;;;;2.75;1.05;;;;;;;;;;4964067;28;20116;-64
2021/08/23 12:36:23;;;;;;;1.02;0.65;;;;;;;;;;4984407;28;20118;-65
2021/08/23 12:38:51;;;;;;;2.22;0.60;;;;;;;;;;4983165;28;20030;-64
2021/08/23 12:41:21;;;;;;;2.17;0.60;;;;;;;;;;4966208;28;20021;-63
2021/08/23 12:43:49;;;;;;;1.10;0.57;;;;;;;;;;4968523;28;20172;-65
2021/08/23 12:46:19;;;;;;;2.20;0.70;;;;;;;;;;4982675;28;20117;-65
2021/08/23 12:48:46;;;;;;;2.53;0.95;;;;;;;;;;4984330;28;20495;-64
2021/08/23 12:51:14;;;;;;;1.65;0.80;;;;;;;;;;4967809;28;20040;-64
2021/08/23 12:53:44;;;;;;;2.72;0.85;;;;;;;;;;4983669;28;20068;-64
2021/08/23 12:56:12;;;;;;;2.47;0.60;;;;;;;;;;4984713;28;20049;-62
2021/08/23 12:58:43;;;;;;;2.65;0.80;;;;;;;;;;4971024;28;22087;-64
2021/08/23 13:01:13;;;;;;;1.45;0.70;;;;;;;;;;4949223;28;20045;-63
2021/08/23 13:03:42;;;;;;;1.17;0.50;;;;;;;;;;4983108;28;20120;-64
2021/08/23 13:06:10;;;;;;;3.83;0.50;;;;;;;;;;4983041;28;20108;-63
2021/08/23 13:08:35;;;;;;;1.05;0.38;;;;;;;;;;4965872;28;20065;-64
2021/08/23 13:11:04;;;;;;;0.82;0.50;;;;;;;;;;4967379;28;20489;-65
2021/08/23 13:13:32;;;;;;;0.40;0.35;;;;;;;;;;4987169;28;20461;-64
2021/08/23 13:16:00;;;;;;;2.08;0.73;;;;;;;;;;4985580;28;20120;-65
2021/08/23 13:18:26;;;;;;;2.05;0.50;;;;;;;;;;4982478;28;20591;-64
2021/08/23 13:20:54;;;;;;;1.10;0.30;;;;;;;;;;4984605;28;20018;-63
2021/08/23 13:23:22;;;;;;;2.50;0.50;;;;;;;;;;4966759;28;20478;-62
2021/08/23 13:25:47;;;;;;;2.58;0.52;;;;;;;;;;4982825;28;20036;-63
2021/08/23 13:28:13;;;;;;;1.17;0.68;;;;;;;;;;4969011;28;20041;-66
2021/08/23 13:30:39;;;;;;;1.30;0.52;;;;;;;;;;4968172;28;20028;-63
2021/08/23 13:33:05;;;;;;;2.70;0.75;;;;;;;;;;4984491;28;21347;-63
2021/08/23 13:35:33;;;;;;;1.05;0.40;;;;;;;;;;4964959;28;21000;-64
2021/08/23 13:38:04;;;;;;;0.55;0.40;;;;;;;;;;4980229;28;20026;-62
2021/08/23 13:40:30;;;;;;;1.95;0.52;;;;;;;;;;4981505;28;20037;-64
2021/08/23 13:42:56;;;;;;;4.65;0.88;;;;;;;;;;4966100;28;20030;-62
2021/08/23 13:45:23;;;;;;;5.20;0.77;;;;;;;;;;4984474;28;20056;-63
2021/08/23 13:47:51;;;;;;;1.80;0.82;;;;;;;;;;4986115;28;20618;-62
2021/08/23 13:50:16;;;;;;;2.03;0.65;;;;;;;;;;4984684;28;20045;-62
2021/08/23 13:52:44;;;;;;;1.35;0.55;;;;;;;;;;4986242;28;20113;-62
2021/08/23 13:55:10;;;;;;;1.67;0.50;;;;;;;;;;4985065;28;20092;-62
2021/08/23 13:57:37;;;;;;;2.42;0.65;;;;;;;;;;4985226;28;20087;-62
2021/08/23 14:00:06;;;;;;;2.17;0.63;;;;;;;;;;4990506;28;20123;-61
2021/08/23 14:02:32;;;;;;;1.65;0.60;;;;;;;;;;4986971;28;20112;-62
2021/08/23 14:04:57;;;;;;;1.52;0.40;;;;;;;;;;4969774;28;20044;-62
2021/08/23 14:07:25;;;;;;;0.45;0.30;;;;;;;;;;4966929;28;22090;-62
2021/08/23 14:09:54;;;;;;;1.30;0.38;;;;;;;;;;4972386;28;22041;-62
2021/08/23 14:12:22;;;;;;;0.50;0.50;;;;;;;;;;4972981;28;20033;-61
2021/08/23 14:14:47;;;;;;;1.63;0.63;;;;;;;;;;4988172;28;20058;-61
2021/08/23 14:17:13;;;;;;;0.30;0.13;;;;;;;;;;4986805;28;20033;-60
2021/08/23 14:19:38;;;;;;;3.75;0.88;;;;;;;;;;4987915;28;20210;-63
2021/08/23 14:22:04;;;;;;;0.20;0.20;;;;;;;;;;4965854;28;20045;-63
2021/08/23 14:24:29;;;;;;;0.93;0.70;;;;;;;;;;4986757;28;20034;-63
2021/08/23 14:26:55;;;;;;;2.10;0.70;;;;;;;;;;4986821;28;20034;-63
2021/08/23 14:29:21;;;;;;;2.70;0.88;;;;;;;;;;4970856;28;20038;-63
2021/08/23 14:31:51;;;;;;;1.02;0.90;;;;;;;;;;4986012;28;20087;-63
2021/08/23 14:34:19;;;;;;;0.82;0.60;;;;;;;;;;4984317;28;20042;-62
2021/08/23 14:36:46;;;;;;;5.70;0.68;;;;;;;;;;4983771;28;20108;-61
2021/08/23 14:39:14;;;;;;;1.35;0.88;;;;;;;;;;4951979;28;20069;-62
2021/08/23 14:41:42;;;;;;;4.28;1.10;;;;;;;;;;4961882;28;20025;-61
2021/08/23 14:44:08;;;;;;;1.73;0.82;;;;;;;;;;4968081;28;22039;-61
2021/08/23 14:46:34;;;;;;;1.52;0.60;;;;;;;;;;4983581;28;20623;-63
2021/08/23 14:49:06;;;;;;;1.95;0.82;;;;;;;;;;4987073;28;20711;-61
2021/08/23 14:51:34;;;;;;;4.68;1.00;;;;;;;;;;4985622;28;20042;-62
2021/08/23 14:54:04;;;;;;;3.50;0.98;;;;;;;;;;4979764;28;20033;-61
2021/08/23 14:56:30;;;;;;;2.65;1.20;;;;;;;;;;4986222;28;20878;-61
2021/08/23 14:58:58;;;;;;;2.17;1.05;;;;;;;;;;4987417;28;20049;-61
2021/08/23 15:01:26;;;;;;;1.48;1.00;;;;;;;;;;4985550;28;20061;-60
2021/08/23 15:03:52;;;;;;;2.95;1.40;;;;;;;;;;4970418;28;20056;-60
2021/08/23 15:06:25;;;;;;;5.75;1.42;;;;;;;;;;4986169;28;20042;-61
2021/08/23 15:08:58;;;;;;;3.03;1.38;;;;;;;;;;4987701;28;20026;-60
2021/08/23 15:11:23;;;;;;;4.15;1.27;;;;;;;;;;4937120;28;20038;-61
2021/08/23 15:13:51;;;;;;;3.72;1.45;;;;;;;;;;4961500;28;20061;-62
2021/08/23 15:16:17;;;;;;;3.97;1.30;;;;;;;;;;4983871;28;20054;-61
2021/08/23 15:18:46;;;;;;;5.13;1.38;;;;;;;;;;4967400;28;20053;-61
2021/08/23 15:21:14;;;;;;;3.67;1.38;;;;;;;;;;4966972;28;20038;-62
2021/08/23 15:23:42;;;;;;;3.05;1.40;;;;;;;;;;4967738;28;20030;-61
2021/08/23 15:26:08;;;;;;;1.55;1.17;;;;;;;;;;4980610;28;20065;-60
2021/08/23 15:28:36;;;;;;;1.73;1.08;;;;;;;;;;4970680;28;20052;-61
2021/08/23 15:31:02;;;;;;;4.40;1.70;;;;;;;;;;4984740;28;20141;-59
2021/08/23 15:33:32;;;;;;;4.55;1.17;;;;;;;;;;4986064;28;20033;-60
2021/08/23 15:35:58;;;;;;;5.95;1.30;;;;;;;;;;4985843;28;20511;-60
2021/08/23 15:38:26;;;;;;;3.42;1.35;;;;;;;;;;4969380;28;22086;-60
2021/08/23 15:40:55;;;;;;;4.68;1.75;;;;;;;;;;4969752;28;20647;-61
2021/08/23 15:43:24;;;;;;;4.53;1.20;;;;;;;;;;4950582;28;20045;-61
2021/08/23 15:45:50;;;;;;;5.75;1.45;;;;;;;;;;4981494;28;20061;-62
2021/08/23 15:48:18;;;;;;;3.03;1.05;;;;;;;;;;4986760;28;20018;-61
2021/08/23 15:50:46;;;;;;;3.63;1.52;;;;;;;;;;4984397;28;20033;-61
2021/08/23 15:53:12;;;;;;;3.53;1.30;;;;;;;;;;4986259;28;20029;-63
2021/08/23 15:55:42;;;;;;;6.68;1.20;;;;;;;;;;4984413;28;20079;-62
2021/08/23 15:58:07;;;;;;;1.83;1.02;;;;;;;;;;4984071;28;20022;-60
2021/08/23 16:00:33;;;;;;;2.88;0.90;;;;;;;;;;4971309;28;20034;-61
2021/08/23 16:02:58;;;;;;;3.60;1.00;;;;;;;;;;4970819;28;20037;-61
2021/08/23 16:05:24;;;;;;;5.55;2.03;;;;;;;;;;4985518;28;20034;-61
2021/08/23 16:07:50;;;;;;;6.60;1.70;;;;;;;;;;4987058;28;20629;-60
2021/08/23 16:10:16;;;;;;;3.33;1.50;;;;;;;;;;4984601;28;20038;-60
2021/08/23 16:12:42;;;;;;;4.65;1.33;;;;;;;;;;4983629;28;22029;-62
2021/08/23 16:15:11;;;;;;;4.05;0.98;;;;;;;;;;4969268;28;20058;-61
2021/08/23 16:17:37;;;;;;;8.50;1.50;;;;;;;;;;4983978;28;20040;-60
2021/08/23 16:20:04;;;;;;;2.92;1.15;;;;;;;;;;4987338;28;20037;-61
2021/08/23 16:22:30;;;;;;;1.98;1.13;;;;;;;;;;4984841;28;20025;-61
2021/08/23 16:24:56;;;;;;;3.83;1.63;;;;;;;;;;4985387;28;20045;-61
2021/08/23 16:27:22;;;;;;;1.63;1.20;;;;;;;;;;4970050;28;20084;-61
2021/08/23 16:29:47;;;;;;;5.30;1.20;;;;;;;;;;4966780;28;20056;-61
2021/08/23 16:32:17;;;;;;;2.10;1.13;;;;;;;;;;4985825;28;20037;-60
2021/08/23 16:34:46;;;;;;;3.08;1.20;;;;;;;;;;4984270;28;20088;-62
2021/08/23 16:37:14;;;;;;;2.80;1.90;;;;;;;;;;4981366;28;20022;-62
2021/08/23 16:39:40;;;;;;;2.95;1.30;;;;;;;;;;4984101;28;20031;-61
2021/08/23 16:42:06;;;;;;;2.13;1.90;;;;;;;;;;4981355;28;20017;-61
2021/08/23 16:44:31;;;;;;;3.33;2.63;;;;;;;;;;4967640;28;21351;-61
2021/08/23 16:46:57;;;;;;;2.50;1.17;;;;;;;;;;4983589;28;20615;-61
2021/08/23 16:49:26;;;;;;;4.75;1.58;;;;;;;;;;4968896;28;20051;-60
2021/08/23 16:51:55;;;;;;;3.85;0.95;;;;;;;;;;4962650;28;20029;-61
2021/08/23 16:54:25;;;;;;;6.03;1.17;;;;;;;;;;4983855;28;20389;-63
2021/08/23 16:56:50;;;;;;;2.55;1.30;;;;;;;;;;4987457;28;20030;-62
2021/08/23 16:59:18;;;;;;;3.38;0.75;;;;;;;;;;4967964;28;20045;-59
2021/08/23 17:01:44;;;;;;;2.30;1.10;;;;;;;;;;4983879;28;20137;-60
2021/08/23 17:04:10;;;;;;;2.67;1.10;;;;;;;;;;4968965;28;20052;-62
2021/08/23 17:06:48;;;;;;;3.83;1.00;;;;;;;;;;4980929;28;20034;-61
2021/08/23 17:09:18;;;;;;;4.70;1.30;;;;;;;;;;4981847;28;20034;-60
2021/08/23 17:11:46;;;;;;;4.15;1.20;;;;;;;;;;4965599;28;20405;-61
2021/08/23 17:14:12;;;;;;;2.75;1.30;;;;;;;;;;4968996;28;20045;-62
2021/08/23 17:16:37;;;;;;;1.52;1.10;;;;;;;;;;4979417;28;20047;-62
2021/08/23 17:19:03;;;;;;;3.05;1.30;;;;;;;;;;4989016;28;20149;-62
2021/08/23 17:21:31;;;;;;;2.50;1.10;;;;;;;;;;4986843;28;20030;-60
2021/08/23 17:23:59;;;;;;;2.30;1.08;;;;;;;;;;4988566;28;20030;-60
2021/08/23 17:26:26;;;;;;;7.35;0.95;;;;;;;;;;4955117;28;20153;-60
2021/08/23 17:28:52;;;;;;;4.47;1.17;;;;;;;;;;4988104;28;20690;-60
2021/08/23 17:31:18;;;;;;;4.45;1.15;;;;;;;;;;4988761;28;20045;-60
2021/08/23 17:33:49;;;;;;;5.38;1.20;;;;;;;;;;4987168;28;20030;-59
2021/08/23 17:36:14;;;;;;;3.05;0.80;;;;;;;;;;4987056;28;20066;-60
2021/08/23 17:38:44;;;;;;;3.30;1.25;;;;;;;;;;4957051;28;20117;-61
2021/08/23 17:41:11;;;;;;;3.55;0.98;;;;;;;;;;4987362;28;20245;-63
2021/08/23 17:43:40;;;;;;;1.70;1.02;;;;;;;;;;4985830;28;20060;-61
2021/08/23 17:46:06;;;;;;;3.13;1.08;;;;;;;;;;4983867;28;20402;-61
2021/08/23 17:48:34;;;;;;;1.63;0.98;;;;;;;;;;4970216;28;20033;-61
2021/08/23 17:51:00;;;;;;;2.22;1.20;;;;;;;;;;4990185;28;20205;-60
2021/08/23 17:53:27;;;;;;;3.92;1.30;;;;;;;;;;4986400;28;20052;-60
2021/08/23 17:55:53;;;;;;;3.80;1.40;;;;;;;;;;4969181;28;20117;-61
2021/08/23 17:58:21;;;;;;;3.08;1.17;;;;;;;;;;4973050;28;20026;-59
2021/08/23 18:00:46;;;;;;;3.95;1.02;;;;;;;;;;4965142;28;20025;-61
2021/08/23 18:03:12;;;;;;;4.90;1.00;;;;;;;;;;4988829;28;20072;-60
2021/08/23 18:05:40;;;;;;;6.28;1.40;;;;;;;;;;4986554;28;20413;-59
2021/08/23 18:08:08;;;;;;;5.82;1.13;;;;;;;;;;4970449;28;20175;-61
2021/08/23 18:10:33;;;;;;;1.85;1.00;;;;;;;;;;4986190;28;20045;-60
2021/08/23 18:13:01;;;;;;;3.38;1.48;;;;;;;;;;4985892;28;20152;-60
2021/08/23 18:15:26;;;;;;;5.03;1.30;;;;;;;;;;4986694;28;20048;-62
2021/08/23 18:17:56;;;;;;;4.63;1.67;;;;;;;;;;4957198;28;20562;-61
2021/08/23 18:20:22;;;;;;;1.88;1.05;;;;;;;;;;4986123;28;20048;-61
2021/08/23 18:22:48;;;;;;;1.77;1.13;;;;;;;;;;4987532;28;20021;-60
2021/08/23 18:25:16;;;;;;;7.68;1.15;;;;;;;;;;4967387;28;20124;-62
2021/08/23 18:27:46;;;;;;;3.05;0.73;;;;;;;;;;4974156;28;20112;-61
2021/08/23 18:30:12;;;;;;;2.55;1.25;;;;;;;;;;4967743;28;20030;-61
2021/08/23 18:32:37;;;;;;;4.25;1.00;;;;;;;;;;4984556;28;20099;-61
2021/08/23 18:35:05;;;;;;;6.40;2.50;;;;;;;;;;4970960;28;20112;-62
2021/08/23 18:37:30;;;;;;;4.45;1.27;;;;;;;;;;4986165;28;20446;-61
2021/08/23 18:39:56;;;;;;;3.05;1.10;;;;;;;;;;4985666;28;20052;-60
2021/08/23 18:42:21;;;;;;;3.85;1.20;;;;;;;;;;4962417;28;20034;-62
2021/08/23 18:44:47;;;;;;;8.15;1.20;;;;;;;;;;4985624;28;20585;-60
2021/08/23 18:47:13;;;;;;;3.55;1.27;;;;;;;;;;4954737;28;20109;-60
2021/08/23 18:49:39;;;;;;;5.45;1.20;;;;;;;;;;4986396;28;20029;-62
2021/08/23 18:52:07;;;;;;;5.32;1.30;;;;;;;;;;4987860;28;20034;-61
2021/08/23 18:54:37;;;;;;;4.10;1.35;;;;;;;;;;4950635;28;20100;-60
2021/08/23 18:57:03;;;;;;;1.23;1.08;;;;;;;;;;4951758;28;20041;-60
2021/08/23 18:59:33;;;;;;;2.22;1.35;;;;;;;;;;4986116;28;20993;-61
2021/08/23 19:02:00;;;;;;;1.70;1.10;;;;;;;;;;4986421;28;20493;-61
2021/08/23 19:04:25;;;;;;;5.97;1.40;;;;;;;;;;4985639;28;20038;-61
2021/08/23 19:06:50;;;;;;;4.80;2.20;;;;;;;;;;4970719;28;20050;-60
2021/08/23 19:09:18;;;;;;;3.45;1.88;;;;;;;;;;4983811;28;20033;-60
2021/08/23 19:11:44;;;;;;;4.95;1.60;;;;;;;;;;4963796;28;20037;-61
2021/08/23 19:14:09;;;;;;;7.68;1.63;;;;;;;;;;4988019;28;20439;-61
2021/08/23 19:16:35;;;;;;;4.97;1.70;;;;;;;;;;4986922;28;20030;-61
2021/08/23 19:19:02;;;;;;;5.45;2.35;;;;;;;;;;4986304;28;20108;-60
2021/08/23 19:21:30;;;;;;;3.17;1.52;;;;;;;;;;4970710;28;20111;-62
2021/08/23 19:23:56;;;;;;;3.55;1.77;;;;;;;;;;4984844;28;20038;-61
2021/08/23 19:26:23;;;;;;;5.05;2.22;;;;;;;;;;4986556;28;20033;-60
2021/08/23 19:28:48;;;;;;;5.55;1.88;;;;;;;;;;4985780;28;20465;-61
2021/08/23 19:31:15;;;;;;;5.50;2.15;;;;;;;;;;4985362;28;20453;-61
2021/08/23 19:34:02;;;;;;;8.50;2.30;;;;;;;;;;4987916;28;20038;-59
2021/08/23 19:36:30;;;;;;;5.63;1.98;;;;;;;;;;4986896;28;20693;-61
2021/08/23 19:38:56;;;;;;;4.40;2.05;;;;;;;;;;4968682;28;20038;-61
2021/08/23 19:41:24;;;;;;;3.20;1.75;;;;;;;;;;4980735;28;20971;-60
2021/08/23 19:43:50;;;;;;;4.35;2.10;;;;;;;;;;4987704;28;20984;-62
2021/08/23 19:46:16;;;;;;;7.78;2.00;;;;;;;;;;4968181;28;20029;-62
2021/08/23 19:48:42;;;;;;;9.98;3.00;;;;;;;;;;4966660;28;20025;-61
2021/08/23 19:51:10;;;;;;;6.22;2.33;;;;;;;;;;4987848;28;20088;-60
2021/08/23 19:53:37;;;;;;;5.07;2.72;;;;;;;;;;4986062;28;20029;-61
2021/08/23 19:56:06;;;;;;;6.07;2.10;;;;;;;;;;4970079;28;20379;-61
2021/08/23 19:58:31;;;;;;;4.45;2.33;;;;;;;;;;4986270;28;20038;-60
2021/08/23 20:00:57;;;;;;;5.30;2.53;;;;;;;;;;4971754;28;20042;-61
2021/08/23 20:03:28;;;;;;;7.70;2.72;;;;;;;;;;4966842;28;20587;-62
2021/08/23 20:05:54;;;;;;;7.13;2.55;;;;;;;;;;4981304;28;20527;-61
2021/08/23 20:08:22;;;;;;;10.30;2.78;;;;;;;;;;4984742;28;20052;-60
2021/08/23 20:10:48;;;;;;;10.05;3.33;;;;;;;;;;4984337;28;20155;-61
2021/08/23 20:13:19;;;;;;;10.70;2.85;;;;;;;;;;4985328;28;20578;-60
2021/08/23 20:15:48;;;;;;;4.88;2.55;;;;;;;;;;4986645;28;20030;-61
2021/08/23 20:18:16;;;;;;;14.52;3.25;;;;;;;;;;4985627;28;20038;-61
2021/08/23 20:20:43;;;;;;;12.90;3.67;;;;;;;;;;4988203;28;20029;-62
2021/08/23 20:23:10;;;;;;;5.10;2.88;;;;;;;;;;4989276;28;20029;-61
2021/08/23 20:25:39;;;;;;;4.63;3.03;;;;;;;;;;4956578;28;20042;-61
2021/08/23 20:28:05;;;;;;;6.28;3.38;;;;;;;;;;4987047;28;20134;-61
2021/08/23 20:30:31;;;;;;;12.93;4.20;;;;;;;;;;4970445;28;20037;-61
2021/08/23 20:33:02;;;;;;;9.93;3.63;;;;;;;;;;4988696;28;20765;-62
2021/08/23 20:35:35;;;;;;;7.50;3.53;;;;;;;;;;4983757;28;20588;-62
2021/08/23 20:38:02;;;;;;;7.55;3.70;;;;;;;;;;4951385;28;20045;-61
2021/08/23 20:40:32;;;;;;;10.27;3.70;;;;;;;;;;4972718;28;20318;-61
2021/08/23 20:42:59;;;;;;;7.55;3.85;;;;;;;;;;4966880;28;20044;-62
2021/08/23 20:45:26;;;;;;;6.90;3.63;;;;;;;;;;4985068;28;20045;-60
2021/08/23 20:47:58;;;;;;;12.15;4.40;;;;;;;;;;4985429;28;20374;-60
2021/08/23 20:50:24;;;;;;;9.35;3.47;;;;;;;;;;4964429;28;20029;-61
2021/08/23 20:52:54;;;;;;;11.10;4.05;;;;;;;;;;4984349;28;20891;-62
2021/08/23 20:55:20;;;;;;;13.38;3.90;;;;;;;;;;4985332;28;20123;-62
2021/08/23 20:57:46;;;;;;;10.18;3.80;;;;;;;;;;4969043;28;20021;-61
2021/08/23 21:00:12;;;;;;;17.17;4.05;;;;;;;;;;4970321;28;22082;-61
2021/08/23 21:02:38;;;;;;;10.60;4.03;;;;;;;;;;4984147;28;20029;-65